Time;durP1;ratioP1;P1;durP2;ratioP2;P2;SDS_P1;SDS_P2;PMS_P1;PMS_P2;Temp;Humidity;BMP_temperature;BMP_pressure;BME280_temperature;BME280_humidity;BME280_pressure;Samples;Min_cycle;Max_cycle;Signal;HPM_P1;HPM_P2
2021/09/25 00:00:57;;;;;;;;;;;;;;;21.64;52.90;99491.22;2066749;28;840;-66
2021/09/25 00:01:57;;;;;;;;;;;;;;;21.63;53.12;99486.78;2066767;28;824;-66
2021/09/25 00:02:58;;;;;;;;;;;;;;;21.62;53.61;99490.44;2066333;28;915;-66
2021/09/25 00:03:58;;;;;;;;;;;;;;;21.64;53.13;99491.22;2066756;28;760;-66
2021/09/25 00:04:58;;;;;;;;;;;;;;;21.64;52.75;99491.22;2066632;28;1891;-66
2021/09/25 00:05:59;;;;;;;;;;;;;;;21.64;53.65;99495.72;2066765;28;966;-66
2021/09/25 00:06:59;;;;;;;;;;;;;;;21.60;53.35;99501.25;2068189;28;1295;-66
2021/09/25 00:08:00;;;;;;;;;;;;;;;21.61;53.40;99494.06;2068043;28;1221;-66
2021/09/25 00:09:01;;;;;;;;;;;;;;;21.61;53.60;99491.38;2067895;28;1218;-66
2021/09/25 00:10:01;;;;;;;;;;;;;;;21.62;52.82;99496.69;2068189;28;835;-66
2021/09/25 00:11:02;;;;;;;;;;;;;;;21.60;52.81;99497.72;2059678;28;954;-65
2021/09/25 00:12:02;;;;;;;;;;;;;;;21.60;53.17;99492.31;2059633;28;1009;-65
2021/09/25 00:13:03;;;;;;;;;;;;;;;21.61;53.28;99497.59;2068200;28;887;-66
2021/09/25 00:14:03;;;;;;;;;;;;;;;21.61;52.81;99491.38;2067808;28;937;-66
2021/09/25 00:15:04;;;;;;;;;;;;;;;21.61;53.13;99494.06;2068093;28;993;-66
2021/09/25 00:16:07;;;;;;;;;;;;;;;21.61;53.05;99491.38;2068045;28;1028;-66
2021/09/25 00:17:08;;;;;;;;;;;;;;;21.62;53.49;99493.97;2068171;28;800;-66
2021/09/25 00:18:08;;;;;;;;;;;;;;;21.61;52.93;99491.38;2068171;28;855;-66
2021/09/25 00:19:08;;;;;;;;;;;;;;;21.60;53.22;99495.03;2068004;28;969;-66
2021/09/25 00:20:08;;;;;;;;;;;;;;;21.59;53.63;99495.97;2067947;28;970;-66
2021/09/25 00:21:09;;;;;;;;;;;;;;;21.61;53.44;99497.59;2068262;28;985;-66
2021/09/25 00:22:09;;;;;;;;;;;;;;;21.62;53.56;99502.06;2068122;28;1017;-65
2021/09/25 00:23:09;;;;;;;;;;;;;;;21.59;52.88;99495.97;2068196;28;1469;-65
2021/09/25 00:24:09;;;;;;;;;;;;;;;21.59;53.03;99495.97;2068400;28;1057;-66
2021/09/25 00:25:10;;;;;;;;;;;;;;;21.62;53.05;99502.06;2067920;28;1895;-65
2021/09/25 00:26:10;;;;;;;;;;;;;;;21.59;53.22;99504.06;2059447;28;877;-66
2021/09/25 00:27:10;;;;;;;;;;;;;;;21.64;52.60;99496.59;2059591;28;772;-66
2021/09/25 00:28:10;;;;;;;;;;;;;;;21.61;52.99;99494.06;2068038;28;927;-66
2021/09/25 00:29:10;;;;;;;;;;;;;;;21.60;53.13;99492.31;2068057;28;923;-66
2021/09/25 00:30:11;;;;;;;;;;;;;;;21.60;52.75;99498.56;2067951;28;782;-66
2021/09/25 00:31:11;;;;;;;;;;;;;;;21.61;52.85;99499.44;2068050;28;934;-66
2021/09/25 00:32:11;;;;;;;;;;;;;;;21.60;52.97;99498.56;2068130;28;874;-66
2021/09/25 00:33:11;;;;;;;;;;;;;;;21.61;52.96;99494.91;2067800;28;845;-66
2021/09/25 00:34:12;;;;;;;;;;;;;;;21.58;52.74;99497.78;2067991;28;966;-66
2021/09/25 00:35:13;;;;;;;;;;;;;;;21.59;53.31;99491.44;2067968;28;1021;-66
2021/09/25 00:36:13;;;;;;;;;;;;;;;21.60;52.80;99495.03;2067714;28;839;-66
2021/09/25 00:37:13;;;;;;;;;;;;;;;21.61;53.16;99507.53;2067974;28;934;-66
2021/09/25 00:38:13;;;;;;;;;;;;;;;21.62;53.29;99498.53;2067994;28;840;-66
2021/09/25 00:39:13;;;;;;;;;;;;;;;21.61;52.75;99504.84;2067990;28;1033;-66
2021/09/25 00:40:14;;;;;;;;;;;;;;;21.60;53.79;99503.94;2067925;28;990;-66
2021/09/25 00:41:15;;;;;;;;;;;;;;;21.59;53.13;99504.06;2067876;28;831;-66
2021/09/25 00:42:15;;;;;;;;;;;;;;;21.59;53.01;99509.44;2067637;28;1200;-66
2021/09/25 00:43:15;;;;;;;;;;;;;;;21.61;53.54;99508.38;2067979;28;1065;-66
2021/09/25 00:44:15;;;;;;;;;;;;;;;21.62;53.50;99506.59;2067978;28;805;-66
2021/09/25 00:45:18;;;;;;;;;;;;;;;21.57;53.08;99503.28;2067861;28;1895;-66
2021/09/25 00:46:19;;;;;;;;;;;;;;;21.60;53.52;99511.19;2067963;28;882;-66
2021/09/25 00:47:19;;;;;;;;;;;;;;;21.59;52.71;99509.44;2067842;28;1198;-66
2021/09/25 00:48:20;;;;;;;;;;;;;;;21.59;53.07;99514.84;2067945;28;780;-66
2021/09/25 00:49:20;;;;;;;;;;;;;;;21.58;53.72;99508.56;2067697;28;1002;-66
2021/09/25 00:50:21;;;;;;;;;;;;;;;21.59;53.76;99509.44;2067735;28;842;-66
2021/09/25 00:51:21;;;;;;;;;;;;;;;21.59;52.95;99513.00;2067934;28;958;-66
2021/09/25 00:52:21;;;;;;;;;;;;;;;21.59;53.47;99509.44;2067897;28;797;-66
2021/09/25 00:53:21;;;;;;;;;;;;;;;21.56;53.05;99509.63;2067918;28;907;-66
2021/09/25 00:54:21;;;;;;;;;;;;;;;21.60;53.07;99513.88;2067781;28;775;-66
2021/09/25 00:55:22;;;;;;;;;;;;;;;21.57;52.83;99509.53;2067418;28;792;-66
2021/09/25 00:56:24;;;;;;;;;;;;;;;21.59;52.72;99514.84;2067788;28;799;-66
2021/09/25 00:57:24;;;;;;;;;;;;;;;21.58;53.38;99516.66;2067876;28;808;-66
2021/09/25 00:58:25;;;;;;;;;;;;;;;21.56;52.75;99515.00;2067791;28;970;-66
2021/09/25 00:59:26;;;;;;;;;;;;;;;21.56;53.58;99523.09;2068066;28;857;-66
2021/09/25 01:00:27;;;;;;;;;;;;;;;21.58;53.68;99515.78;2067523;28;1022;-66
2021/09/25 01:01:27;;;;;;;;;;;;;;;21.55;53.70;99519.53;2067886;28;808;-66
2021/09/25 01:02:28;;;;;;;;;;;;;;;21.59;53.17;99522.91;2067825;28;1029;-66
2021/09/25 01:03:28;;;;;;;;;;;;;;;21.56;52.79;99523.94;2067922;28;877;-66
2021/09/25 01:04:29;;;;;;;;;;;;;;;21.54;53.70;99515.09;2067794;28;1965;-66
2021/09/25 01:05:29;;;;;;;;;;;;;;;21.60;53.02;99516.56;2067715;28;784;-66
2021/09/25 01:06:29;;;;;;;;;;;;;;;21.57;53.16;99519.44;2067523;28;777;-66
2021/09/25 01:07:29;;;;;;;;;;;;;;;21.58;52.94;99521.19;2067840;28;851;-66
2021/09/25 01:08:29;;;;;;;;;;;;;;;21.55;53.35;99521.34;2067828;28;851;-66
2021/09/25 01:09:30;;;;;;;;;;;;;;;21.56;53.20;99518.56;2067747;28;1024;-66
2021/09/25 01:10:30;;;;;;;;;;;;;;;21.54;52.95;99519.63;2067786;28;981;-66
2021/09/25 01:11:30;;;;;;;;;;;;;;;21.56;53.45;99523.09;2067444;28;820;-66
2021/09/25 01:12:31;;;;;;;;;;;;;;;21.58;53.07;99526.56;2067705;28;973;-66
2021/09/25 01:13:31;;;;;;;;;;;;;;;21.58;52.88;99524.72;2067784;28;843;-66
2021/09/25 01:14:31;;;;;;;;;;;;;;;21.56;53.20;99518.56;2067728;28;874;-66
2021/09/25 01:15:31;;;;;;;;;;;;;;;21.56;52.81;99523.09;2067680;28;772;-66
2021/09/25 01:16:31;;;;;;;;;;;;;;;21.55;53.38;99516.81;2067536;28;1068;-66
2021/09/25 01:17:32;;;;;;;;;;;;;;;21.56;53.31;99515.88;2067159;28;1177;-66
2021/09/25 01:18:32;;;;;;;;;;;;;;;21.56;52.98;99517.72;2067643;28;1022;-66
2021/09/25 01:19:32;;;;;;;;;;;;;;;21.57;53.04;99512.22;2067801;28;937;-66
2021/09/25 01:20:32;;;;;;;;;;;;;;;21.56;53.21;99518.56;2067633;28;878;-66
2021/09/25 01:21:33;;;;;;;;;;;;;;;21.56;53.69;99525.78;2067730;28;1024;-66
2021/09/25 01:22:33;;;;;;;;;;;;;;;21.56;53.04;99523.09;2067271;28;1029;-66
2021/09/25 01:23:33;;;;;;;;;;;;;;;21.56;53.18;99520.41;2067615;28;1460;-66
2021/09/25 01:24:34;;;;;;;;;;;;;;;21.55;53.51;99524.91;2067603;28;1918;-66
2021/09/25 01:25:34;;;;;;;;;;;;;;;21.57;53.39;99525.69;2067740;28;1049;-66
2021/09/25 01:26:35;;;;;;;;;;;;;;;21.56;52.98;99520.41;2067694;28;898;-66
2021/09/25 01:27:35;;;;;;;;;;;;;;;21.53;53.12;99517.88;2067394;28;958;-66
2021/09/25 01:28:36;;;;;;;;;;;;;;;21.56;52.96;99520.41;2067728;28;827;-65
2021/09/25 01:29:36;;;;;;;;;;;;;;;21.55;53.64;99516.81;2059092;28;2577;-65
2021/09/25 01:30:36;;;;;;;;;;;;;;;21.54;53.44;99523.16;2058874;28;855;-66
2021/09/25 01:31:37;;;;;;;;;;;;;;;21.57;53.04;99519.44;2067434;28;978;-66
2021/09/25 01:32:37;;;;;;;;;;;;;;;21.55;53.46;99524.06;2067626;28;922;-66
2021/09/25 01:33:39;;;;;;;;;;;;;;;21.55;52.99;99532.13;2067484;28;985;-66
2021/09/25 01:34:40;;;;;;;;;;;;;;;21.53;53.49;99528.66;2067460;28;764;-66
2021/09/25 01:35:40;;;;;;;;;;;;;;;21.56;53.26;99523.94;2067514;28;1005;-66
2021/09/25 01:36:40;;;;;;;;;;;;;;;21.52;53.61;99526.94;2067449;28;1033;-66
2021/09/25 01:37:40;;;;;;;;;;;;;;;21.54;53.72;99533.94;2067560;28;1002;-66
2021/09/25 01:38:42;;;;;;;;;;;;;;;21.53;52.85;99523.28;2067590;28;1103;-66
2021/09/25 01:39:42;;;;;;;;;;;;;;;21.51;53.24;99534.13;2067218;28;902;-66
2021/09/25 01:40:43;;;;;;;;;;;;;;;21.51;53.09;99523.34;2067469;28;993;-66
2021/09/25 01:41:43;;;;;;;;;;;;;;;21.54;53.50;99531.25;2067480;28;876;-66
2021/09/25 01:42:43;;;;;;;;;;;;;;;21.55;53.40;99529.44;2067472;28;887;-66
2021/09/25 01:43:43;;;;;;;;;;;;;;;21.52;53.88;99530.47;2067539;28;911;-66
2021/09/25 01:44:45;;;;;;;;;;;;;;;21.50;53.84;99527.00;2067134;28;1906;-66
2021/09/25 01:45:46;;;;;;;;;;;;;;;21.50;53.82;99531.53;2067489;28;776;-66
2021/09/25 01:46:46;;;;;;;;;;;;;;;21.55;53.14;99534.84;2067447;28;942;-66
2021/09/25 01:47:46;;;;;;;;;;;;;;;21.55;53.34;99529.44;2067586;28;844;-66
2021/09/25 01:48:46;;;;;;;;;;;;;;;21.51;53.07;99530.56;2067451;28;808;-66
2021/09/25 01:49:48;;;;;;;;;;;;;;;21.51;53.51;99541.34;2067484;28;844;-65
2021/09/25 01:50:48;;;;;;;;;;;;;;;21.51;52.86;99538.66;2067423;28;978;-65
2021/09/25 01:51:48;;;;;;;;;;;;;;;21.53;53.37;99543.00;2067478;28;807;-65
2021/09/25 01:52:48;;;;;;;;;;;;;;;21.48;53.67;99537.03;2067445;28;863;-65
2021/09/25 01:53:49;;;;;;;;;;;;;;;21.55;53.23;99537.53;2067438;28;859;-64
2021/09/25 01:54:49;;;;;;;;;;;;;;;21.53;53.26;99547.53;2067384;28;795;-64
2021/09/25 01:55:49;;;;;;;;;;;;;;;21.53;53.95;99547.53;2067315;28;933;-63
2021/09/25 01:56:49;;;;;;;;;;;;;;;21.51;53.27;99542.22;2067362;28;910;-63
2021/09/25 01:57:50;;;;;;;;;;;;;;;21.50;53.45;99547.69;2067069;28;1236;-63
2021/09/25 01:58:50;;;;;;;;;;;;;;;21.52;54.35;99548.47;2067365;28;784;-63
2021/09/25 01:59:50;;;;;;;;;;;;;;;21.55;53.33;99551.84;2067374;28;793;-63
2021/09/25 02:00:50;;;;;;;;;;;;;;;21.54;53.66;99550.13;2067289;28;843;-64
2021/09/25 02:01:51;;;;;;;;;;;;;;;21.57;53.45;99557.16;2067335;28;808;-62
2021/09/25 02:02:52;;;;;;;;;;;;;;;21.56;53.09;99555.44;2067469;28;898;-63
2021/09/25 02:03:52;;;;;;;;;;;;;;;21.56;53.11;99558.13;2067145;28;922;-64
2021/09/25 02:04:52;;;;;;;;;;;;;;;21.54;53.65;99563.59;2067232;28;1957;-64
2021/09/25 02:05:52;;;;;;;;;;;;;;;21.57;53.39;99552.63;2067524;28;989;-66
2021/09/25 02:06:52;;;;;;;;;;;;;;;21.56;53.58;99555.44;2066926;28;860;-66
2021/09/25 02:07:53;;;;;;;;;;;;;;;21.52;53.27;99557.41;2070078;28;1586;-66
2021/09/25 02:08:53;;;;;;;;;;;;;;;21.55;53.05;99557.25;2075133;28;1338;-65
2021/09/25 02:09:53;;;;;;;;;;;;;;;21.53;54.08;99553.75;2075457;28;768;-65
2021/09/25 02:10:53;;;;;;;;;;;;;;;21.55;53.42;99559.94;2075396;28;1023;-65
2021/09/25 02:11:53;;;;;;;;;;;;;;;21.55;53.33;99564.47;2066293;28;1180;-65
2021/09/25 02:12:53;;;;;;;;;;;;;;;21.51;53.47;99557.53;2066611;28;1282;-65
2021/09/25 02:13:54;;;;;;;;;;;;;;;21.51;53.76;99560.22;2075304;28;970;-65
2021/09/25 02:14:54;;;;;;;;;;;;;;;21.47;53.69;99552.31;2075388;28;796;-65
2021/09/25 02:15:54;;;;;;;;;;;;;;;21.54;53.70;99568.97;2074660;28;1365;-65
2021/09/25 02:16:54;;;;;;;;;;;;;;;21.53;53.27;99564.53;2074622;28;756;-66
2021/09/25 02:17:55;;;;;;;;;;;;;;;21.51;53.24;99557.53;2075078;28;918;-65
2021/09/25 02:18:55;;;;;;;;;;;;;;;21.50;53.16;99562.03;2075273;28;1020;-65
2021/09/25 02:19:55;;;;;;;;;;;;;;;21.52;53.96;99562.81;2075328;28;783;-66
2021/09/25 02:20:55;;;;;;;;;;;;;;;21.50;53.71;99563.88;2075249;28;787;-66
2021/09/25 02:21:55;;;;;;;;;;;;;;;21.51;53.75;99565.59;2075256;28;966;-66
2021/09/25 02:22:56;;;;;;;;;;;;;;;21.52;53.14;99568.19;2074904;28;804;-65
2021/09/25 02:23:56;;;;;;;;;;;;;;;21.53;53.61;99567.22;2066543;28;1687;-66
2021/09/25 02:24:56;;;;;;;;;;;;;;;21.54;53.39;99568.97;2066591;28;1964;-65
2021/09/25 02:25:56;;;;;;;;;;;;;;;21.47;53.88;99571.16;2067257;28;832;-66
2021/09/25 02:26:56;;;;;;;;;;;;;;;21.50;53.44;99577.34;2067176;28;977;-66
2021/09/25 02:27:57;;;;;;;;;;;;;;;21.53;53.75;99569.94;2067138;28;778;-65
2021/09/25 02:28:57;;;;;;;;;;;;;;;21.48;53.88;99572.91;2066273;28;1010;-65
2021/09/25 02:29:57;;;;;;;;;;;;;;;21.53;53.20;99574.47;2067199;28;675;-65
2021/09/25 02:30:58;;;;;;;;;;;;;;;21.55;53.11;99575.25;2067154;28;982;-66
2021/09/25 02:31:58;;;;;;;;;;;;;;;21.53;53.11;99577.16;2067141;28;1025;-65
2021/09/25 02:32:58;;;;;;;;;;;;;;;21.53;53.73;99574.47;2067195;28;935;-65
2021/09/25 02:33:58;;;;;;;;;;;;;;;21.51;53.60;99576.38;2066805;28;1259;-66
2021/09/25 02:34:58;;;;;;;;;;;;;;;21.53;53.97;99574.47;2067378;28;753;-65
2021/09/25 02:35:59;;;;;;;;;;;;;;;21.49;54.13;99573.75;2067267;28;1010;-65
2021/09/25 02:36:59;;;;;;;;;;;;;;;21.49;53.36;99576.44;2067245;28;1417;-65
2021/09/25 02:37:59;;;;;;;;;;;;;;;21.52;54.25;99578.97;2066882;28;852;-65
2021/09/25 02:39:01;;;;;;;;;;;;;;;21.50;53.80;99580.88;2067114;28;851;-65
2021/09/25 02:40:01;;;;;;;;;;;;;;;21.48;54.20;99583.69;2067085;28;864;-66
2021/09/25 02:41:01;;;;;;;;;;;;;;;21.51;53.15;99579.94;2067070;28;863;-65
2021/09/25 02:42:02;;;;;;;;;;;;;;;21.52;52.93;99580.81;2067038;28;978;-65
2021/09/25 02:43:02;;;;;;;;;;;;;;;21.47;53.71;99584.63;2066693;28;1238;-65
2021/09/25 02:44:03;;;;;;;;;;;;;;;21.46;53.40;99584.75;2067032;28;843;-65
2021/09/25 02:45:04;;;;;;;;;;;;;;;21.48;53.98;99583.69;2066979;28;1890;-65
2021/09/25 02:46:04;;;;;;;;;;;;;;;21.50;54.28;99582.72;2066885;28;1135;-65
2021/09/25 02:47:04;;;;;;;;;;;;;;;21.50;53.59;99585.41;2067039;28;780;-65
2021/09/25 02:48:04;;;;;;;;;;;;;;;21.50;53.60;99588.13;2066718;28;1010;-65
2021/09/25 02:49:04;;;;;;;;;;;;;;;21.48;53.31;99589.06;2066986;28;847;-65
2021/09/25 02:50:06;;;;;;;;;;;;;;;21.47;53.21;99595.41;2067031;28;1037;-66
2021/09/25 02:51:06;;;;;;;;;;;;;;;21.46;53.09;99588.28;2066941;28;1156;-65
2021/09/25 02:52:06;;;;;;;;;;;;;;;21.50;53.80;99588.13;2066969;28;756;-65
2021/09/25 02:53:06;;;;;;;;;;;;;;;21.51;53.36;99590.69;2067156;28;1029;-65
2021/09/25 02:54:06;;;;;;;;;;;;;;;21.45;54.24;99589.25;2067044;28;877;-65
2021/09/25 02:55:07;;;;;;;;;;;;;;;21.45;53.21;99594.63;2067011;28;749;-65
2021/09/25 02:56:07;;;;;;;;;;;;;;;21.46;53.57;99595.50;2066548;28;785;-65
2021/09/25 02:57:07;;;;;;;;;;;;;;;21.47;53.19;99589.16;2066936;28;913;-65
2021/09/25 02:58:07;;;;;;;;;;;;;;;21.48;53.36;99591.75;2066913;28;970;-65
2021/09/25 02:59:07;;;;;;;;;;;;;;;21.47;53.97;99595.41;2066991;28;859;-66
2021/09/25 03:00:09;;;;;;;;;;;;;;;21.45;53.67;99591.94;2066953;28;863;-66
2021/09/25 03:01:10;;;;;;;;;;;;;;;21.45;53.48;99594.63;2066817;28;1174;-65
2021/09/25 03:02:10;;;;;;;;;;;;;;;21.46;53.35;99601.75;2066758;28;994;-65
2021/09/25 03:03:10;;;;;;;;;;;;;;;21.46;53.41;99600.91;2066983;28;807;-65
2021/09/25 03:04:10;;;;;;;;;;;;;;;21.47;53.92;99600.81;2067011;28;824;-65
2021/09/25 03:05:10;;;;;;;;;;;;;;;21.45;53.47;99599.16;2067204;28;1886;-65
2021/09/25 03:06:11;;;;;;;;;;;;;;;21.44;54.37;99598.28;2067128;28;823;-65
2021/09/25 03:07:11;;;;;;;;;;;;;;;21.46;53.83;99604.44;2066705;28;958;-65
2021/09/25 03:08:11;;;;;;;;;;;;;;;21.46;53.52;99598.22;2066955;28;978;-65
2021/09/25 03:09:11;;;;;;;;;;;;;;;21.46;54.08;99601.75;2066778;28;1071;-65
2021/09/25 03:10:11;;;;;;;;;;;;;;;21.48;54.52;99607.06;2066961;28;827;-65
2021/09/25 03:11:11;;;;;;;;;;;;;;;21.43;53.65;99604.63;2074518;28;1233;-65
2021/09/25 03:12:12;;;;;;;;;;;;;;;21.44;54.19;99602.81;2074464;28;1092;-65
2021/09/25 03:13:12;;;;;;;;;;;;;;;21.44;53.56;99609.06;2066937;28;780;-65
2021/09/25 03:14:12;;;;;;;;;;;;;;;21.44;54.11;99606.38;2067017;28;937;-65
2021/09/25 03:15:12;;;;;;;;;;;;;;;21.46;53.83;99609.84;2066566;28;939;-65
2021/09/25 03:16:12;;;;;;;;;;;;;;;21.45;53.42;99612.63;2066776;28;1032;-65
2021/09/25 03:17:13;;;;;;;;;;;;;;;21.43;53.51;99615.41;2066872;28;886;-65
2021/09/25 03:18:13;;;;;;;;;;;;;;;21.41;53.43;99611.91;2066823;28;973;-65
2021/09/25 03:19:13;;;;;;;;;;;;;;;21.45;54.14;99618.03;2066835;28;1036;-65
2021/09/25 03:20:13;;;;;;;;;;;;;;;21.43;53.94;99615.41;2066637;28;763;-65
2021/09/25 03:21:13;;;;;;;;;;;;;;;21.42;54.11;99613.66;2066821;28;823;-65
2021/09/25 03:22:14;;;;;;;;;;;;;;;21.43;54.29;99626.16;2066822;28;1141;-65
2021/09/25 03:23:14;;;;;;;;;;;;;;;21.42;53.68;99626.28;2066540;28;1187;-65
2021/09/25 03:24:15;;;;;;;;;;;;;;;21.40;53.64;99623.66;2066698;28;823;-65
2021/09/25 03:25:15;;;;;;;;;;;;;;;21.42;54.24;99621.75;2066786;28;1926;-65
2021/09/25 03:26:15;;;;;;;;;;;;;;;21.45;53.92;99626.09;2066809;28;843;-65
2021/09/25 03:27:15;;;;;;;;;;;;;;;21.43;53.71;99628.88;2066813;28;1037;-65
2021/09/25 03:28:15;;;;;;;;;;;;;;;21.43;53.58;99626.16;2066780;28;890;-65
2021/09/25 03:29:16;;;;;;;;;;;;;;;21.45;53.68;99629.66;2066465;28;784;-65
2021/09/25 03:30:16;;;;;;;;;;;;;;;21.44;53.35;99636.00;2066806;28;1140;-65
2021/09/25 03:31:16;;;;;;;;;;;;;;;21.46;53.95;99642.16;2066837;28;969;-65
2021/09/25 03:32:16;;;;;;;;;;;;;;;21.46;53.26;99630.53;2066762;28;836;-65
2021/09/25 03:33:16;;;;;;;;;;;;;;;21.47;53.25;99643.06;2066817;28;989;-65
2021/09/25 03:34:16;;;;;;;;;;;;;;;21.44;53.91;99640.53;2066437;28;756;-65
2021/09/25 03:35:17;;;;;;;;;;;;;;;21.42;54.02;99637.06;2066952;28;843;-65
2021/09/25 03:36:17;;;;;;;;;;;;;;;21.42;53.83;99637.91;2070987;28;1283;-65
2021/09/25 03:37:17;;;;;;;;;;;;;;;21.39;53.88;99638.06;2075086;28;788;-66
2021/09/25 03:38:21;;;;;;;;;;;;;;;21.42;53.88;99637.06;2075022;28;752;-65
2021/09/25 03:39:21;;;;;;;;;;;;;;;21.41;54.24;99644.25;2074753;28;883;-65
2021/09/25 03:40:21;;;;;;;;;;;;;;;21.42;54.30;99643.28;2075171;28;962;-65
2021/09/25 03:41:21;;;;;;;;;;;;;;;21.41;53.71;99644.25;2076524;28;1801;-65
2021/09/25 03:42:21;;;;;;;;;;;;;;;21.44;53.56;99643.22;2076615;28;1040;-65
2021/09/25 03:43:22;;;;;;;;;;;;;;;21.42;54.22;99648.69;2076559;28;831;-65
2021/09/25 03:44:22;;;;;;;;;;;;;;;21.43;53.97;99649.56;2076541;28;772;-65
2021/09/25 03:45:22;;;;;;;;;;;;;;;21.45;53.92;99645.81;2076078;28;1894;-65
2021/09/25 03:46:22;;;;;;;;;;;;;;;21.41;54.55;99643.41;2076518;28;875;-66
2021/09/25 03:47:22;;;;;;;;;;;;;;;21.41;54.01;99660.41;2076552;28;1033;-65
2021/09/25 03:48:22;;;;;;;;;;;;;;;21.43;53.19;99658.50;2076517;28;791;-65
2021/09/25 03:49:22;;;;;;;;;;;;;;;21.38;54.34;99654.34;2076503;28;1044;-65
2021/09/25 03:50:23;;;;;;;;;;;;;;;21.43;53.34;99657.66;2076296;28;977;-65
2021/09/25 03:51:23;;;;;;;;;;;;;;;21.42;53.82;99662.16;2076121;28;793;-65
2021/09/25 03:52:23;;;;;;;;;;;;;;;21.44;53.54;99664.78;2076162;28;1021;-65
2021/09/25 03:53:23;;;;;;;;;;;;;;;21.41;53.39;99665.81;2076442;28;1006;-65
2021/09/25 03:54:23;;;;;;;;;;;;;;;21.43;53.63;99669.28;2076464;28;769;-65
2021/09/25 03:55:24;;;;;;;;;;;;;;;21.43;53.70;99668.44;2076447;28;868;-66
2021/09/25 03:56:24;;;;;;;;;;;;;;;21.39;53.98;99675.78;2076366;28;1448;-65
2021/09/25 03:57:24;;;;;;;;;;;;;;;21.41;53.79;99670.34;2076402;28;810;-65
2021/09/25 03:58:24;;;;;;;;;;;;;;;21.39;54.17;99673.09;2076097;28;827;-65
2021/09/25 03:59:24;;;;;;;;;;;;;;;21.42;53.89;99672.94;2076221;28;1042;-65
2021/09/25 04:00:25;;;;;;;;;;;;;;;21.44;54.44;99681.78;2076407;28;761;-65
2021/09/25 04:01:25;;;;;;;;;;;;;;;21.42;53.87;99680.16;2076352;28;898;-65
2021/09/25 04:02:25;;;;;;;;;;;;;;;21.44;54.04;99676.41;2076336;28;973;-65
2021/09/25 04:03:25;;;;;;;;;;;;;;;21.86;52.64;99679.50;2076400;28;844;-65
2021/09/25 04:04:26;;;;;;;;;;;;;;;22.16;51.60;99683.22;2076016;28;907;-65
2021/09/25 04:05:26;;;;;;;;;;;;;;;22.25;51.25;99692.59;2076319;28;1886;-65
2021/09/25 04:06:26;;;;;;;;;;;;;;;22.33;50.75;99690.31;2076382;28;1045;-65
2021/09/25 04:07:26;;;;;;;;;;;;;;;22.38;50.93;99690.03;2076365;28;846;-65
2021/09/25 04:08:31;;;;;;;;;;;;;;;22.43;51.18;99690.63;2076333;28;1208;-65
2021/09/25 04:09:31;;;;;;;;;;;;;;;22.47;50.35;99690.41;2075270;28;1138;-65
2021/09/25 04:10:31;;;;;;;;;;;;;;;22.54;50.31;99696.28;2075807;28;969;-65
2021/09/25 04:11:31;;;;;;;;;;;;;;;22.55;50.61;99695.34;2076329;28;1005;-65
2021/09/25 04:12:32;;;;;;;;;;;;;;;22.61;49.93;99699.50;2076428;28;855;-65
2021/09/25 04:13:32;;;;;;;;;;;;;;;22.61;50.70;99700.38;2076316;28;974;-65
2021/09/25 04:14:32;;;;;;;;;;;;;;;22.63;50.78;99703.84;2076222;28;807;-65
2021/09/25 04:15:32;;;;;;;;;;;;;;;22.66;50.17;99702.81;2076095;28;1065;-65
2021/09/25 04:16:32;;;;;;;;;;;;;;;22.69;50.69;99707.13;2076172;28;1032;-65
2021/09/25 04:17:33;;;;;;;;;;;;;;;22.73;50.53;99714.09;2076296;28;977;-66
2021/09/25 04:18:33;;;;;;;;;;;;;;;22.73;50.04;99712.25;2076248;28;828;-65
2021/09/25 04:19:33;;;;;;;;;;;;;;;22.74;50.14;99715.84;2076334;28;980;-65
2021/09/25 04:20:33;;;;;;;;;;;;;;;22.77;50.25;99721.03;2075936;28;917;-65
2021/09/25 04:21:33;;;;;;;;;;;;;;;22.79;50.42;99719.97;2076363;28;779;-65
2021/09/25 04:22:33;;;;;;;;;;;;;;;22.80;49.83;99720.88;2076161;28;898;-65
2021/09/25 04:23:34;;;;;;;;;;;;;;;22.80;50.08;99726.25;2072581;28;1464;-65
2021/09/25 04:24:34;;;;;;;;;;;;;;;22.80;49.65;99723.56;2068098;28;916;-65
2021/09/25 04:25:34;;;;;;;;;;;;;;;22.83;50.12;99726.06;2067908;28;2010;-65
2021/09/25 04:26:34;;;;;;;;;;;;;;;22.81;50.27;99728.00;2068056;28;1036;-65
2021/09/25 04:27:34;;;;;;;;;;;;;;;22.83;49.88;99731.47;2068107;28;809;-65
2021/09/25 04:28:34;;;;;;;;;;;;;;;22.86;49.81;99730.41;2067697;28;864;-65
2021/09/25 04:29:35;;;;;;;;;;;;;;;22.85;50.25;99734.97;2068062;28;1420;-65
2021/09/25 04:30:35;;;;;;;;;;;;;;;22.84;50.27;99737.72;2068024;28;985;-65
2021/09/25 04:31:36;;;;;;;;;;;;;;;22.84;49.92;99733.22;2059374;28;1267;-65
2021/09/25 04:32:37;;;;;;;;;;;;;;;22.87;50.39;99740.25;2059485;28;783;-65
2021/09/25 04:33:37;;;;;;;;;;;;;;;22.87;49.87;99745.66;2067912;28;954;-65
2021/09/25 04:34:37;;;;;;;;;;;;;;;22.85;49.97;99745.75;2067792;28;812;-65
2021/09/25 04:35:37;;;;;;;;;;;;;;;22.86;49.71;99747.50;2068250;28;1022;-65
2021/09/25 04:36:40;;;;;;;;;;;;;;;22.84;50.10;99749.41;2068285;28;863;-66
2021/09/25 04:37:40;;;;;;;;;;;;;;;22.86;49.99;99752.00;2068405;28;851;-65
2021/09/25 04:38:41;;;;;;;;;;;;;;;22.88;50.31;99750.09;2068249;28;1001;-65
2021/09/25 04:39:41;;;;;;;;;;;;;;;22.86;49.86;99747.50;2068273;28;887;-65
2021/09/25 04:40:41;;;;;;;;;;;;;;;22.90;50.41;99749.06;2068003;28;848;-65
2021/09/25 04:41:41;;;;;;;;;;;;;;;22.88;50.35;99753.69;2068058;28;974;-65
2021/09/25 04:42:42;;;;;;;;;;;;;;;22.88;50.40;99755.50;2068082;28;780;-65
2021/09/25 04:43:42;;;;;;;;;;;;;;;22.92;49.99;99757.03;2067965;28;854;-65
2021/09/25 04:44:42;;;;;;;;;;;;;;;22.89;50.03;99758.13;2067716;28;1959;-65
2021/09/25 04:45:43;;;;;;;;;;;;;;;22.90;50.43;99757.16;2067844;28;760;-65
2021/09/25 04:46:43;;;;;;;;;;;;;;;22.90;50.30;99757.16;2067965;28;918;-66
2021/09/25 04:47:44;;;;;;;;;;;;;;;22.89;50.03;99763.50;2068056;28;830;-66
2021/09/25 04:48:48;;;;;;;;;;;;;;;22.91;49.97;99760.72;2067961;28;799;-66
2021/09/25 04:49:48;;;;;;;;;;;;;;;22.92;50.18;99757.03;2067970;28;863;-66
2021/09/25 04:50:48;;;;;;;;;;;;;;;22.90;50.35;99758.97;2067577;28;883;-65
2021/09/25 04:51:48;;;;;;;;;;;;;;;22.91;50.35;99756.19;2067542;28;756;-65
2021/09/25 04:52:48;;;;;;;;;;;;;;;22.92;50.99;99757.03;2067511;28;982;-65
2021/09/25 04:53:49;;;;;;;;;;;;;;;22.92;49.99;99757.03;2067945;28;827;-65
2021/09/25 04:54:49;;;;;;;;;;;;;;;22.91;50.42;99756.19;2067891;28;1216;-66
2021/09/25 04:55:49;;;;;;;;;;;;;;;22.94;50.19;99758.72;2067974;28;843;-65
2021/09/25 04:56:49;;;;;;;;;;;;;;;22.97;50.17;99759.44;2067791;28;836;-66
2021/09/25 04:57:49;;;;;;;;;;;;;;;22.93;50.35;99754.28;2067850;28;910;-66
2021/09/25 04:58:49;;;;;;;;;;;;;;;22.93;50.05;99759.66;2067856;28;986;-66
2021/09/25 04:59:50;;;;;;;;;;;;;;;22.93;49.79;99747.97;2067885;28;973;-66
2021/09/25 05:00:50;;;;;;;;;;;;;;;22.93;49.88;99756.09;2067595;28;1210;-66
2021/09/25 05:01:50;;;;;;;;;;;;;;;22.94;50.18;99764.09;2067672;28;832;-66
2021/09/25 05:02:50;;;;;;;;;;;;;;;22.94;50.25;99755.13;2067888;28;828;-65
2021/09/25 05:03:50;;;;;;;;;;;;;;;22.94;50.09;99756.00;2067893;28;869;-66
2021/09/25 05:04:51;;;;;;;;;;;;;;;22.95;50.63;99763.16;2067938;28;1875;-66
2021/09/25 05:05:51;;;;;;;;;;;;;;;22.96;50.55;99761.31;2067824;28;1044;-66
2021/09/25 05:06:51;;;;;;;;;;;;;;;22.95;50.21;99759.56;2067477;28;803;-66
2021/09/25 05:07:51;;;;;;;;;;;;;;;22.97;49.82;99764.84;2067969;28;1037;-65
2021/09/25 05:08:51;;;;;;;;;;;;;;;22.97;50.22;99768.44;2068036;28;1304;-66
2021/09/25 05:09:51;;;;;;;;;;;;;;;22.95;50.24;99756.84;2068212;28;966;-66
2021/09/25 05:10:52;;;;;;;;;;;;;;;22.97;50.08;99767.56;2068351;28;827;-65
2021/09/25 05:11:52;;;;;;;;;;;;;;;22.98;50.07;99769.28;2067609;28;760;-65
2021/09/25 05:12:52;;;;;;;;;;;;;;;23.00;49.92;99770.06;2067618;28;1202;-65
2021/09/25 05:13:52;;;;;;;;;;;;;;;22.97;50.32;99771.13;2067799;28;1025;-66
2021/09/25 05:14:52;;;;;;;;;;;;;;;22.98;49.87;99775.56;2067728;28;831;-66
2021/09/25 05:15:53;;;;;;;;;;;;;;;22.97;50.18;99775.66;2067772;28;832;-66
2021/09/25 05:16:54;;;;;;;;;;;;;;;23.00;49.84;99772.78;2067681;28;1131;-66
2021/09/25 05:17:54;;;;;;;;;;;;;;;22.99;50.52;99771.91;2067303;28;923;-66
2021/09/25 05:18:54;;;;;;;;;;;;;;;22.97;49.94;99767.56;2067693;28;1565;-66
2021/09/25 05:19:54;;;;;;;;;;;;;;;22.97;49.71;99771.13;2067726;28;1073;-65
2021/09/25 05:20:54;;;;;;;;;;;;;;;22.98;50.03;99772.00;2067686;28;694;-66
2021/09/25 05:21:54;;;;;;;;;;;;;;;22.99;50.36;99773.72;2067716;28;831;-66